Time;durP1;ratioP1;P1;durP2;ratioP2;P2;SDS_P1;SDS_P2;PMS_P1;PMS_P2;Temp;Humidity;BMP_temperature;BMP_pressure;BME280_temperature;BME280_humidity;BME280_pressure;Samples;Min_cycle;Max_cycle;Signal;HPM_P1;HPM_P2
2023/10/26 00:00:29;;;;;;;15.55;13.27;;;11.30;90.70;;;;;;5021005;28;20051;-95
2023/10/26 00:02:54;;;;;;;17.05;13.55;;;11.30;90.60;;;;;;4981761;28;20105;-95
2023/10/26 00:05:20;;;;;;;15.52;12.52;;;11.40;90.70;;;;;;5009028;28;20039;-95
2023/10/26 00:07:46;;;;;;;16.30;13.38;;;11.80;90.70;;;;;;5022320;28;20038;-96
2023/10/26 00:10:12;;;;;;;16.10;13.32;;;11.30;90.60;;;;;;5000537;28;20129;-95
2023/10/26 00:12:37;;;;;;;14.10;11.57;;;11.30;90.60;;;;;;4995292;28;20062;-94
2023/10/26 00:15:03;;;;;;;14.13;12.23;;;11.30;90.60;;;;;;4995246;28;20050;-95
2023/10/26 00:17:29;;;;;;;14.35;12.93;;;11.30;90.60;;;;;;4995017;28;20067;-95
2023/10/26 00:19:55;;;;;;;17.27;12.98;;;11.30;90.60;;;;;;4994103;28;20046;-95
2023/10/26 00:22:21;;;;;;;15.38;13.55;;;11.30;90.60;;;;;;4993998;28;20034;-94
2023/10/26 00:24:47;;;;;;;11.60;10.27;;;11.30;90.60;;;;;;4974860;28;20038;-94
2023/10/26 00:27:17;;;;;;;17.27;13.95;;;11.30;90.60;;;;;;5007260;28;20375;-95
2023/10/26 00:29:43;;;;;;;16.80;12.88;;;11.30;90.60;;;;;;4974911;28;20490;-96
2023/10/26 00:32:09;;;;;;;16.83;13.02;;;11.20;90.50;;;;;;4974675;28;20053;-95
2023/10/26 00:34:35;;;;;;;12.85;11.48;;;11.30;90.50;;;;;;4974574;28;20043;-95
2023/10/26 00:37:01;;;;;;;14.40;11.85;;;11.30;90.50;;;;;;4974433;28;20398;-95
2023/10/26 00:39:27;;;;;;;16.77;14.35;;;11.30;90.50;;;;;;5008311;28;20039;-95
2023/10/26 00:41:53;;;;;;;15.10;12.13;;;11.30;90.50;;;;;;5010064;28;20064;-94
2023/10/26 00:44:21;;;;;;;20.00;15.32;;;11.30;90.50;;;;;;4986177;28;20052;-95
2023/10/26 00:46:48;;;;;;;18.67;15.00;;;11.30;90.50;;;;;;4982481;28;20038;-94
2023/10/26 00:49:15;;;;;;;16.35;14.60;;;11.30;90.50;;;;;;4974490;28;20050;-95
2023/10/26 00:51:46;;;;;;;16.00;12.30;;;11.30;90.50;;;;;;5007098;28;20042;-95
2023/10/26 00:54:13;;;;;;;14.75;12.32;;;11.30;90.50;;;;;;4973843;28;20035;-96
2023/10/26 00:56:39;;;;;;;14.15;12.65;;;11.30;90.50;;;;;;4974297;28;20565;-94
2023/10/26 00:59:05;;;;;;;12.40;11.10;;;11.30;90.50;;;;;;5004414;28;20087;-95
2023/10/26 01:01:32;;;;;;;14.05;11.30;;;11.30;90.50;;;;;;5006496;28;20137;-94
2023/10/26 01:03:59;;;;;;;13.95;12.52;;;11.30;90.50;;;;;;4987084;28;20529;-95
2023/10/26 01:06:25;;;;;;;13.82;11.60;;;11.20;90.50;;;;;;4993667;28;20502;-96
2023/10/26 01:08:50;;;;;;;16.65;13.32;;;11.20;90.50;;;;;;4992520;28;20042;-96
2023/10/26 01:11:16;;;;;;;15.07;13.45;;;11.30;90.50;;;;;;4994472;28;20045;-95
2023/10/26 01:13:42;;;;;;;13.18;11.88;;;11.20;90.50;;;;;;4985004;28;20046;-96
2023/10/26 01:16:09;;;;;;;16.27;13.52;;;11.20;90.70;;;;;;4981546;28;20034;-95
2023/10/26 01:18:34;;;;;;;18.65;13.45;;;11.30;90.50;;;;;;4984093;28;20395;-94
2023/10/26 01:21:00;;;;;;;13.80;12.02;;;11.20;90.50;;;;;;5008971;28;20046;-95
2023/10/26 01:23:25;;;;;;;12.98;11.18;;;11.20;90.50;;;;;;5011617;28;20042;-96
2023/10/26 01:25:53;;;;;;;13.55;12.00;;;11.20;90.50;;;;;;5012782;28;20046;-96
2023/10/26 01:28:19;;;;;;;13.95;11.13;;;11.50;90.60;;;;;;4983632;28;20030;-96
2023/10/26 01:30:45;;;;;;;15.10;12.98;;;11.20;90.50;;;;;;5014464;28;20619;-96
2023/10/26 01:33:11;;;;;;;13.25;11.95;;;11.20;90.40;;;;;;5029610;28;20022;-96
2023/10/26 01:35:38;;;;;;;12.90;11.52;;;11.20;90.50;;;;;;5019710;28;20073;-96
2023/10/26 01:38:04;;;;;;;11.82;10.43;;;11.20;90.50;;;;;;4982543;28;20106;-95
2023/10/26 01:40:30;;;;;;;12.05;10.77;;;11.20;90.50;;;;;;5001137;28;20038;-95
2023/10/26 01:42:56;;;;;;;16.27;12.73;;;11.60;90.60;;;;;;5022166;28;20060;-95
2023/10/26 01:45:21;;;;;;;13.55;12.15;;;11.30;90.50;;;;;;4982978;28;20034;-95
2023/10/26 01:47:47;;;;;;;14.23;11.23;;;11.20;90.40;;;;;;4985465;28;20023;-95
2023/10/26 01:50:13;;;;;;;13.88;12.15;;;11.30;90.40;;;;;;5023005;28;20031;-95
2023/10/26 01:52:42;;;;;;;16.67;13.85;;;11.30;90.40;;;;;;4996813;28;20035;-94
2023/10/26 01:55:08;;;;;;;14.98;13.05;;;11.20;90.40;;;;;;4990786;28;20121;-95
2023/10/26 01:57:33;;;;;;;13.90;12.40;;;11.30;90.40;;;;;;5023124;28;20454;-95
2023/10/26 01:59:59;;;;;;;14.30;12.27;;;11.20;90.40;;;;;;5023146;28;20051;-96
2023/10/26 02:02:24;;;;;;;15.13;12.77;;;11.20;90.30;;;;;;5023530;28;20050;-96
2023/10/26 02:04:50;;;;;;;15.00;12.68;;;11.30;90.40;;;;;;4990003;28;20092;-96
2023/10/26 02:07:16;;;;;;;15.50;12.85;;;11.20;90.30;;;;;;5021274;28;20049;-96
2023/10/26 02:09:41;;;;;;;13.15;10.77;;;11.20;90.30;;;;;;4962540;28;20121;-96
2023/10/26 02:12:07;;;;;;;13.45;11.35;;;11.20;90.20;;;;;;4967166;28;20034;-95
2023/10/26 02:14:33;;;;;;;16.40;13.10;;;11.30;90.20;;;;;;5003753;28;20043;-96
2023/10/26 02:16:59;;;;;;;18.02;13.15;;;11.20;90.20;;;;;;4997002;28;20035;-96
2023/10/26 02:19:25;;;;;;;16.63;12.68;;;11.20;90.20;;;;;;5026382;28;20161;-95
2023/10/26 02:21:50;;;;;;;13.95;12.07;;;11.20;90.20;;;;;;5028857;28;20038;-95
2023/10/26 02:24:16;;;;;;;12.88;11.48;;;11.20;90.20;;;;;;5029815;28;20097;-96
2023/10/26 02:26:41;;;;;;;12.77;11.48;;;11.60;90.30;;;;;;5025462;28;20046;-95
2023/10/26 02:29:07;;;;;;;16.83;14.13;;;11.20;90.20;;;;;;5027517;28;20041;-95
2023/10/26 02:31:33;;;;;;;16.45;13.02;;;11.20;90.10;;;;;;5017085;28;20477;-96
2023/10/26 02:33:58;;;;;;;14.40;12.07;;;11.40;90.20;;;;;;4977307;28;20097;-96
2023/10/26 02:36:24;;;;;;;13.40;10.98;;;11.30;90.10;;;;;;5016962;28;20431;-96
2023/10/26 02:38:49;;;;;;;14.48;11.05;;;11.70;90.30;;;;;;5002978;28;20102;-96
2023/10/26 02:41:15;;;;;;;20.20;14.50;;;11.20;90.10;;;;;;5021055;28;20180;-96
2023/10/26 02:43:41;;;;;;;17.15;14.00;;;11.20;90.10;;;;;;4961567;28;20110;-96
2023/10/26 02:46:06;;;;;;;15.45;12.77;;;11.20;90.00;;;;;;4961905;28;20451;-96
2023/10/26 02:48:33;;;;;;;13.38;11.90;;;11.10;90.00;;;;;;4960702;28;20041;-96
2023/10/26 02:51:00;;;;;;;15.07;12.43;;;11.20;90.10;;;;;;4962437;28;20039;-95
2023/10/26 02:53:25;;;;;;;16.00;14.07;;;11.10;90.00;;;;;;4962893;28;20491;-96
2023/10/26 02:55:51;;;;;;;17.05;14.43;;;11.10;90.00;;;;;;4960655;28;20039;-96
2023/10/26 02:58:17;;;;;;;15.50;13.77;;;11.20;90.00;;;;;;4961879;28;20108;-95
2023/10/26 03:00:43;;;;;;;17.08;13.50;;;11.10;90.00;;;;;;4960162;28;20557;-96
2023/10/26 03:03:08;;;;;;;15.63;14.00;;;11.10;90.00;;;;;;4961720;28;20035;-95
2023/10/26 03:05:35;;;;;;;13.10;10.55;;;11.10;90.00;;;;;;4973293;28;20045;-94
2023/10/26 03:08:01;;;;;;;12.13;10.75;;;11.10;90.10;;;;;;4992528;28;20117;-95
2023/10/26 03:10:28;;;;;;;12.57;10.85;;;11.00;90.10;;;;;;5013661;28;20081;-95
2023/10/26 03:12:53;;;;;;;16.25;13.38;;;11.00;90.10;;;;;;5013111;28;20044;-95
2023/10/26 03:15:19;;;;;;;11.95;10.15;;;11.00;90.10;;;;;;5014551;28;20125;-96
2023/10/26 03:17:45;;;;;;;13.48;12.07;;;11.00;90.10;;;;;;5000326;28;20087;-96
2023/10/26 03:20:12;;;;;;;12.15;10.85;;;11.00;90.10;;;;;;5027295;28;20103;-95
2023/10/26 03:22:39;;;;;;;12.45;10.50;;;11.00;90.20;;;;;;4996303;28;20122;-96
2023/10/26 03:25:05;;;;;;;12.95;11.52;;;11.00;90.20;;;;;;5028517;28;20447;-96
2023/10/26 03:27:31;;;;;;;15.85;11.75;;;11.00;90.20;;;;;;4978339;28;20041;-96
2023/10/26 03:29:57;;;;;;;13.40;12.00;;;11.00;90.20;;;;;;4991455;28;20042;-95
2023/10/26 03:32:22;;;;;;;12.82;11.15;;;11.00;90.10;;;;;;5031496;28;20050;-96
2023/10/26 03:34:48;;;;;;;13.95;12.35;;;11.10;90.20;;;;;;5023271;28;20078;-96
2023/10/26 03:37:15;;;;;;;12.15;10.80;;;11.00;90.10;;;;;;4983917;28;20035;-96
2023/10/26 03:39:40;;;;;;;13.25;11.85;;;11.30;90.20;;;;;;4984103;28;20129;-96
2023/10/26 03:42:06;;;;;;;14.13;12.63;;;11.00;90.10;;;;;;5022425;28;20038;-96
2023/10/26 03:44:32;;;;;;;13.35;10.52;;;11.00;90.10;;;;;;5017835;28;20035;-96
2023/10/26 03:46:58;;;;;;;13.77;11.35;;;11.00;90.10;;;;;;5011542;28;20098;-96
2023/10/26 03:49:23;;;;;;;11.80;10.50;;;11.00;90.10;;;;;;4995798;28;20038;-96
2023/10/26 03:51:49;;;;;;;12.20;10.65;;;11.00;90.10;;;;;;5028042;28;20042;-96
2023/10/26 03:54:15;;;;;;;16.50;14.73;;;11.00;90.10;;;;;;5027050;28;20035;-96
2023/10/26 03:56:41;;;;;;;14.20;12.30;;;11.00;90.10;;;;;;5020044;28;20048;-96
2023/10/26 03:59:06;;;;;;;12.15;10.85;;;11.00;90.00;;;;;;4991994;28;20037;-96
2023/10/26 04:01:32;;;;;;;12.45;10.93;;;11.00;90.00;;;;;;4997010;28;20110;-96
2023/10/26 04:03:58;;;;;;;13.95;12.45;;;11.00;90.00;;;;;;4996849;28;20042;-96
2023/10/26 04:06:23;;;;;;;12.40;10.07;;;11.00;90.00;;;;;;4987710;28;20041;-96
2023/10/26 04:08:49;;;;;;;11.07;9.93;;;11.00;90.20;;;;;;5002880;28;20117;-96
2023/10/26 04:11:17;;;;;;;12.35;10.65;;;11.00;90.00;;;;;;4995401;28;20054;-96
2023/10/26 04:13:42;;;;;;;12.70;10.73;;;11.00;90.00;;;;;;5001414;28;20046;-96
2023/10/26 04:16:08;;;;;;;11.43;10.15;;;11.10;90.00;;;;;;4992585;28;20073;-96
2023/10/26 04:18:34;;;;;;;13.48;11.75;;;11.00;89.90;;;;;;4985396;28;20043;-96
2023/10/26 04:20:59;;;;;;;12.02;10.70;;;11.00;89.90;;;;;;4991390;28;20047;-96
2023/10/26 04:23:26;;;;;;;11.55;10.35;;;11.10;89.90;;;;;;5032233;28;20049;-96
2023/10/26 04:25:52;;;;;;;11.75;10.15;;;10.90;89.70;;;;;;5002970;28;20103;-96
2023/10/26 04:28:18;;;;;;;11.40;9.90;;;11.00;89.70;;;;;;4992234;28;20075;-96
2023/10/26 04:30:47;;;;;;;14.07;11.43;;;10.90;89.60;;;;;;4982066;28;20089;-96
2023/10/26 04:33:16;;;;;;;14.07;11.93;;;10.90;89.60;;;;;;4989362;28;20038;-95
2023/10/26 04:35:46;;;;;;;10.90;9.80;;;10.90;89.50;;;;;;4992122;28;20117;-96
2023/10/26 04:38:12;;;;;;;10.30;9.18;;;11.20;89.70;;;;;;5004622;28;20125;-96
2023/10/26 04:40:39;;;;;;;10.75;9.40;;;11.00;89.50;;;;;;5003968;28;20042;-96
2023/10/26 04:43:06;;;;;;;11.20;10.07;;;10.90;89.40;;;;;;5005674;28;20041;-96
2023/10/26 04:45:32;;;;;;;10.55;9.45;;;10.90;89.40;;;;;;4999839;28;20042;-96
2023/10/26 04:48:01;;;;;;;10.93;8.98;;;10.80;89.30;;;;;;4999190;28;20073;-96
2023/10/26 04:50:27;;;;;;;13.20;11.90;;;10.80;89.30;;;;;;4986356;28;20110;-96
2023/10/26 04:52:53;;;;;;;13.57;12.00;;;10.90;89.40;;;;;;5000988;28;20069;-96
2023/10/26 04:55:19;;;;;;;12.88;11.50;;;10.80;89.30;;;;;;5002042;28;20101;-96
2023/10/26 04:57:45;;;;;;;12.88;11.27;;;10.80;89.40;;;;;;5006976;28;20041;-96
2023/10/26 05:00:11;;;;;;;12.85;11.55;;;10.80;89.40;;;;;;4998295;28;20058;-96
2023/10/26 05:02:37;;;;;;;11.40;10.02;;;10.80;89.40;;;;;;4996663;28;20075;-96
2023/10/26 05:05:04;;;;;;;13.77;11.43;;;10.80;89.50;;;;;;4997379;28;20046;-96
2023/10/26 05:07:30;;;;;;;12.95;11.55;;;10.80;89.50;;;;;;4983647;28;20098;-96
2023/10/26 05:09:56;;;;;;;15.32;13.48;;;11.00;89.60;;;;;;5015443;28;20042;-96
2023/10/26 05:12:22;;;;;;;18.98;17.08;;;10.80;89.50;;;;;;4982454;28;20058;-96
2023/10/26 05:14:49;;;;;;;14.90;13.40;;;10.80;89.50;;;;;;5024172;28;20043;-96
2023/10/26 05:17:14;;;;;;;16.15;14.45;;;10.80;89.50;;;;;;4991875;28;20068;-96
2023/10/26 05:19:40;;;;;;;15.68;14.07;;;10.80;89.70;;;;;;5018322;28;20042;-96
2023/10/26 05:22:06;;;;;;;13.82;12.32;;;10.80;89.60;;;;;;5005042;28;20043;-96
2023/10/26 05:24:32;;;;;;;14.40;12.43;;;10.80;89.60;;;;;;5042913;28;20054;-96
2023/10/26 05:26:58;;;;;;;13.35;12.02;;;10.80;89.60;;;;;;5006180;28;20042;-96
2023/10/26 05:29:24;;;;;;;12.90;11.55;;;10.70;89.60;;;;;;4998804;28;20053;-96
2023/10/26 05:31:49;;;;;;;13.93;12.52;;;10.70;89.60;;;;;;5013167;28;20103;-95
2023/10/26 05:34:15;;;;;;;13.52;11.98;;;10.70;89.70;;;;;;5020565;28;20050;-96
2023/10/26 05:36:41;;;;;;;15.48;13.93;;;10.80;89.70;;;;;;5029933;28;20050;-96
2023/10/26 05:39:06;;;;;;;16.15;13.85;;;10.70;89.70;;;;;;5025823;28;20054;-96
2023/10/26 05:41:33;;;;;;;14.13;12.63;;;10.80;89.80;;;;;;4990552;28;20039;-96
2023/10/26 05:43:59;;;;;;;14.23;12.73;;;10.70;89.70;;;;;;4994479;28;20034;-96
2023/10/26 05:46:25;;;;;;;15.80;14.07;;;10.70;89.70;;;;;;4959397;28;20031;-95
2023/10/26 05:48:51;;;;;;;15.05;13.45;;;10.80;89.80;;;;;;4960405;28;20045;-96
2023/10/26 05:51:16;;;;;;;15.65;14.05;;;10.70;89.70;;;;;;4983718;28;20137;-95
2023/10/26 05:53:42;;;;;;;16.00;14.40;;;10.70;89.70;;;;;;4999348;28;20042;-95
2023/10/26 05:56:08;;;;;;;15.70;14.10;;;10.70;89.70;;;;;;4989741;28;20042;-96
2023/10/26 05:58:34;;;;;;;15.98;14.38;;;10.80;89.70;;;;;;5015047;28;20034;-96
2023/10/26 06:01:00;;;;;;;15.48;13.95;;;10.80;89.70;;;;;;4997922;28;20047;-95
2023/10/26 06:03:26;;;;;;;15.32;13.77;;;10.70;89.60;;;;;;4974603;28;20129;-95
2023/10/26 06:05:58;;;;;;;15.48;13.88;;;11.20;89.90;;;;;;4974397;28;20026;-95
2023/10/26 06:08:23;;;;;;;14.88;13.43;;;10.70;89.60;;;;;;4973835;28;20035;-96
2023/10/26 06:10:49;;;;;;;14.65;13.23;;;10.80;89.60;;;;;;5011934;28;20125;-96
2023/10/26 06:13:15;;;;;;;15.75;14.25;;;10.80;89.60;;;;;;5004346;28;20050;-96
2023/10/26 06:15:40;;;;;;;14.90;13.50;;;10.80;89.60;;;;;;4992380;28;20042;-96
2023/10/26 06:18:06;;;;;;;13.48;12.18;;;10.80;89.50;;;;;;4995664;28;20045;-96
2023/10/26 06:20:31;;;;;;;14.50;13.05;;;10.70;89.40;;;;;;5006195;28;20484;-96
2023/10/26 06:22:57;;;;;;;15.80;14.25;;;10.70;89.40;;;;;;4980048;28;20467;-95
2023/10/26 06:25:25;;;;;;;15.07;13.57;;;10.70;89.30;;;;;;4981020;28;20455;-96
2023/10/26 06:27:51;;;;;;;14.40;12.98;;;10.80;89.30;;;;;;4990698;28;20053;-95
2023/10/26 06:30:16;;;;;;;15.38;13.88;;;10.70;89.10;;;;;;4988738;28;20487;-95
2023/10/26 06:32:43;;;;;;;15.45;13.95;;;10.70;89.10;;;;;;5009116;28;20047;-96
2023/10/26 06:35:10;;;;;;;14.23;12.82;;;10.70;89.10;;;;;;5008451;28;20049;-96
2023/10/26 06:37:37;;;;;;;15.65;14.15;;;10.80;89.20;;;;;;5008755;28;20038;-96
2023/10/26 06:40:03;;;;;;;17.05;15.32;;;10.70;89.10;;;;;;4977520;28;20046;-96
2023/10/26 06:42:29;;;;;;;16.08;14.48;;;10.60;89.00;;;;;;4976405;28;20105;-95
2023/10/26 06:44:54;;;;;;;17.40;15.57;;;10.70;89.00;;;;;;5009190;28;20112;-95
2023/10/26 06:47:20;;;;;;;15.43;13.82;;;10.70;89.00;;;;;;5016429;28;20047;-95
2023/10/26 06:49:46;;;;;;;16.70;14.80;;;10.60;88.90;;;;;;4977457;28;20109;-94
2023/10/26 06:52:12;;;;;;;22.75;15.93;;;10.70;88.80;;;;;;5008860;28;20073;-96
2023/10/26 06:54:37;;;;;;;17.98;16.15;;;10.60;88.70;;;;;;4993362;28;20499;-94
2023/10/26 06:57:04;;;;;;;17.67;15.85;;;10.60;88.50;;;;;;4956154;28;20045;-96
2023/10/26 06:59:29;;;;;;;33.17;16.33;;;10.60;88.50;;;;;;4956121;28;20051;-95
2023/10/26 07:01:56;;;;;;;18.05;15.98;;;10.60;88.40;;;;;;4956295;28;20057;-95
2023/10/26 07:04:22;;;;;;;15.20;13.70;;;10.50;88.20;;;;;;4956115;28;20043;-95
2023/10/26 07:06:47;;;;;;;17.40;15.65;;;10.50;88.20;;;;;;4966150;28;20050;-95
2023/10/26 07:09:13;;;;;;;17.20;15.50;;;10.50;88.30;;;;;;4975679;28;20039;-95
2023/10/26 07:11:39;;;;;;;17.92;16.05;;;10.50;88.40;;;;;;4975572;28;20065;-96
2023/10/26 07:14:04;;;;;;;17.83;15.13;;;10.50;88.40;;;;;;4975680;28;20043;-95
2023/10/26 07:16:30;;;;;;;18.77;15.25;;;10.50;88.30;;;;;;4984716;28;20052;-94
2023/10/26 07:18:55;;;;;;;18.05;15.13;;;10.40;88.20;;;;;;4991682;28;20042;-95
2023/10/26 07:21:21;;;;;;;17.13;15.43;;;10.40;88.20;;;;;;4986625;28;20038;-93
2023/10/26 07:23:47;;;;;;;19.52;16.67;;;10.40;88.30;;;;;;4979758;28;20121;-95
2023/10/26 07:26:17;;;;;;;15.75;14.25;;;10.40;88.40;;;;;;4982858;28;20098;-94
2023/10/26 07:28:43;;;;;;;21.45;15.27;;;10.40;88.50;;;;;;4988699;28;20042;-93
2023/10/26 07:31:08;;;;;;;16.75;15.15;;;10.40;88.60;;;;;;4983032;28;20045;-95
2023/10/26 07:33:34;;;;;;;16.98;15.27;;;10.40;88.60;;;;;;4976026;28;20046;-94
2023/10/26 07:36:00;;;;;;;19.65;15.00;;;10.40;88.70;;;;;;5008333;28;20048;-94
2023/10/26 07:38:25;;;;;;;27.55;16.48;;;10.40;88.70;;;;;;5008284;28;20379;-95
2023/10/26 07:40:56;;;;;;;16.52;14.93;;;10.40;88.70;;;;;;5007987;28;20054;-95
2023/10/26 07:43:22;;;;;;;21.83;15.98;;;10.40;88.70;;;;;;5008244;28;20048;-95
2023/10/26 07:45:50;;;;;;;16.63;14.93;;;10.30;88.70;;;;;;5008116;28;20045;-95
2023/10/26 07:48:16;;;;;;;27.35;16.70;;;10.30;88.80;;;;;;4975434;28;20052;-95
2023/10/26 07:50:42;;;;;;;17.30;15.50;;;10.30;89.00;;;;;;4975155;28;20125;-95
2023/10/26 07:53:08;;;;;;;16.48;14.77;;;10.40;89.10;;;;;;4975201;28;20088;-95
2023/10/26 07:55:34;;;;;;;15.70;14.10;;;10.30;89.10;;;;;;4975632;28;20191;-95
2023/10/26 07:58:00;;;;;;;17.05;15.32;;;10.40;89.40;;;;;;4975515;28;20508;-94
2023/10/26 08:00:25;;;;;;;17.67;15.88;;;10.40;89.50;;;;;;4975464;28;20083;-94
2023/10/26 08:02:51;;;;;;;18.80;16.73;;;10.40;89.60;;;;;;5008682;28;20129;-95
2023/10/26 08:05:17;;;;;;;19.00;17.10;;;10.40;89.60;;;;;;5007868;28;20034;-94
2023/10/26 08:07:44;;;;;;;16.63;15.00;;;10.40;89.60;;;;;;5007992;28;20026;-94
2023/10/26 08:10:10;;;;;;;18.95;16.33;;;10.80;89.90;;;;;;5008158;28;20046;-94
2023/10/26 08:12:36;;;;;;;14.32;12.93;;;10.40;89.70;;;;;;5009577;28;20505;-95
2023/10/26 08:15:02;;;;;;;15.98;14.38;;;10.40;89.70;;;;;;4997359;28;20027;-95
2023/10/26 08:17:28;;;;;;;18.58;16.58;;;10.50;89.90;;;;;;4956075;28;20046;-94
2023/10/26 08:19:55;;;;;;;19.50;17.50;;;10.50;89.90;;;;;;4955943;28;20050;-94
2023/10/26 08:22:23;;;;;;;19.70;17.65;;;10.50;90.00;;;;;;4955764;28;20035;-95
2023/10/26 08:24:49;;;;;;;17.65;15.85;;;10.60;90.10;;;;;;4955837;28;20042;-95
2023/10/26 08:27:14;;;;;;;20.40;17.80;;;10.50;90.10;;;;;;4956570;28;20035;-95
2023/10/26 08:29:40;;;;;;;19.95;17.75;;;10.60;90.10;;;;;;4965209;28;20061;-94
2023/10/26 08:32:06;;;;;;;19.58;17.58;;;10.60;90.10;;;;;;5008581;28;20070;-95
2023/10/26 08:34:31;;;;;;;20.52;18.33;;;10.60;90.10;;;;;;5009143;28;20376;-95
2023/10/26 08:37:00;;;;;;;22.73;19.75;;;10.60;90.20;;;;;;5008812;28;20102;-96
2023/10/26 08:39:26;;;;;;;19.60;17.35;;;10.70;90.20;;;;;;4978692;28;20194;-95
2023/10/26 08:41:52;;;;;;;20.27;18.15;;;10.70;90.20;;;;;;5009033;28;20030;-95
2023/10/26 08:44:18;;;;;;;22.30;19.95;;;10.70;90.30;;;;;;5011185;28;20046;-95
2023/10/26 08:46:47;;;;;;;23.50;21.00;;;10.70;90.30;;;;;;5006501;28;20039;-95
2023/10/26 08:49:14;;;;;;;22.10;19.70;;;10.90;90.40;;;;;;4967459;28;20042;-95
2023/10/26 08:51:39;;;;;;;23.58;21.10;;;10.80;90.30;;;;;;4993368;28;20040;-92
2023/10/26 08:54:05;;;;;;;23.60;20.25;;;10.80;90.40;;;;;;4982482;28;20046;-91
2023/10/26 08:56:31;;;;;;;24.17;21.58;;;10.90;90.50;;;;;;5138684;22;20064;-94
2023/10/26 08:58:58;;;;;;;27.55;22.33;;;10.90;90.60;;;;;;5070172;28;20532;-94
2023/10/26 09:01:24;;;;;;;27.63;23.50;;;11.00;90.60;;;;;;5016471;28;20077;-94
2023/10/26 09:03:49;;;;;;;25.20;22.50;;;11.00;90.60;;;;;;5037980;28;20049;-92
2023/10/26 09:06:15;;;;;;;28.73;23.83;;;11.10;90.60;;;;;;5046868;28;20041;-92
2023/10/26 09:08:41;;;;;;;29.20;24.38;;;11.10;90.60;;;;;;5046594;28;20042;-93
2023/10/26 09:11:24;;;;;;;27.35;24.35;;;11.10;90.60;;;;;;5021662;28;20045;-95
2023/10/26 09:13:50;;;;;;;26.88;23.83;;;11.20;90.60;;;;;;5046259;28;20049;-93
2023/10/26 09:16:16;;;;;;;26.85;23.90;;;11.20;90.50;;;;;;5024657;28;20037;-95
2023/10/26 09:18:50;;;;;;;29.08;24.40;;;11.20;90.50;;;;;;5035433;28;20034;-93
2023/10/26 09:21:16;;;;;;;28.40;23.70;;;11.20;90.60;;;;;;5015924;28;20332;-95
2023/10/26 09:23:42;;;;;;;27.45;24.25;;;11.30;90.70;;;;;;5034549;28;20037;-96
2023/10/26 09:26:09;;;;;;;29.02;24.75;;;11.30;90.80;;;;;;5033310;28;20523;-95
2023/10/26 09:28:52;;;;;;;29.30;24.48;;;11.40;90.70;;;;;;5016059;28;20486;-96
2023/10/26 09:31:18;;;;;;;26.80;23.42;;;11.40;90.70;;;;;;5015727;28;20052;-95
2023/10/26 09:33:45;;;;;;;27.20;22.88;;;11.40;90.60;;;;;;5032649;28;20037;-96
2023/10/26 09:36:16;;;;;;;28.27;23.58;;;11.50;90.50;;;;;;5031512;28;20038;-95
2023/10/26 09:38:42;;;;;;;28.35;24.48;;;11.50;90.50;;;;;;5031739;28;20046;-96
2023/10/26 09:41:12;;;;;;;27.42;23.67;;;11.50;90.60;;;;;;5031831;28;20049;-96
2023/10/26 09:43:42;;;;;;;27.55;23.85;;;11.60;90.50;;;;;;5035182;28;20482;-95
2023/10/26 09:46:08;;;;;;;28.70;23.10;;;11.60;90.40;;;;;;5035608;28;20047;-95
2023/10/26 09:48:34;;;;;;;25.55;22.02;;;11.60;90.30;;;;;;5036654;28;20490;-94
2023/10/26 09:51:00;;;;;;;27.75;23.40;;;11.60;90.10;;;;;;5018730;28;20041;-94
2023/10/26 09:53:32;;;;;;;26.30;22.85;;;11.60;90.10;;;;;;5035288;28;20107;-95
2023/10/26 09:56:00;;;;;;;32.85;25.05;;;11.70;90.10;;;;;;5035462;28;20129;-95
2023/10/26 09:58:30;;;;;;;26.95;24.00;;;11.70;90.00;;;;;;5035838;28;20039;-95
2023/10/26 10:00:56;;;;;;;27.60;23.77;;;11.60;90.00;;;;;;5035659;28;20042;-96
2023/10/26 10:03:21;;;;;;;31.83;23.55;;;11.60;89.90;;;;;;5067997;28;20042;-94
2023/10/26 10:05:47;;;;;;;28.27;23.05;;;11.70;90.00;;;;;;5018144;28;20466;-96
2023/10/26 10:08:13;;;;;;;25.65;21.65;;;11.70;90.00;;;;;;5068403;28;20107;-94
2023/10/26 10:11:16;;;;;;;27.10;23.40;;;11.70;90.00;;;;;;5035508;28;20053;-95
2023/10/26 10:13:42;;;;;;;27.95;23.30;;;11.70;90.10;;;;;;5035313;28;20053;-95
2023/10/26 10:16:36;;;;;;;26.98;23.00;;;11.70;90.20;;;;;;5035869;28;20044;-94
2023/10/26 10:19:21;;;;;;;26.83;22.92;;;11.70;90.10;;;;;;5068399;28;20128;-94
2023/10/26 10:21:49;;;;;;;26.80;23.23;;;11.80;90.10;;;;;;5035104;28;20041;-94
2023/10/26 10:24:39;;;;;;;26.33;23.25;;;11.80;90.00;;;;;;5018342;28;20065;-94
2023/10/26 10:27:12;;;;;;;28.25;22.02;;;11.80;89.60;;;;;;5021471;28;20544;-94
2023/10/26 10:29:42;;;;;;;25.60;21.23;;;11.70;89.70;;;;;;5019445;28;20099;-95
2023/10/26 10:32:12;;;;;;;24.25;21.60;;;11.70;89.60;;;;;;5035405;28;20044;-94
2023/10/26 10:34:45;;;;;;;29.77;24.63;;;11.70;89.60;;;;;;5035019;28;20058;-94
2023/10/26 10:37:12;;;;;;;24.92;21.67;;;11.80;89.90;;;;;;5018582;28;20033;-94
2023/10/26 10:39:58;;;;;;;26.77;22.63;;;11.80;89.90;;;;;;5034545;28;20367;-94
2023/10/26 10:42:24;;;;;;;26.45;23.55;;;11.90;90.00;;;;;;5034499;28;20091;-95
2023/10/26 10:44:51;;;;;;;27.05;23.55;;;11.90;89.80;;;;;;5034256;28;20049;-93
2023/10/26 10:47:16;;;;;;;24.10;21.38;;;11.90;89.60;;;;;;5033820;28;20044;-93
2023/10/26 10:49:42;;;;;;;25.83;21.75;;;12.00;89.50;;;;;;5055939;28;20045;-93
2023/10/26 10:52:13;;;;;;;26.20;23.23;;;12.00;89.20;;;;;;5078833;28;20478;-96
2023/10/26 10:54:39;;;;;;;25.25;21.13;;;12.00;89.00;;;;;;5054995;28;20120;-94
2023/10/26 10:57:05;;;;;;;26.77;22.50;;;12.10;89.00;;;;;;5068486;28;20145;-93
2023/10/26 10:59:31;;;;;;;24.90;22.17;;;12.10;88.90;;;;;;5038306;28;20429;-91
2023/10/26 11:02:13;;;;;;;26.67;21.73;;;12.20;88.80;;;;;;5069274;28;20049;-94
2023/10/26 11:04:52;;;;;;;25.77;21.08;;;12.40;88.90;;;;;;5021141;28;20037;-96
2023/10/26 11:07:22;;;;;;;24.85;20.95;;;12.30;88.70;;;;;;5067935;28;20038;-95
2023/10/26 11:09:49;;;;;;;25.65;20.45;;;12.40;88.70;;;;;;5018116;28;20375;-93
2023/10/26 11:12:15;;;;;;;25.73;20.45;;;12.40;88.40;;;;;;5034657;28;20050;-95
2023/10/26 11:14:52;;;;;;;26.90;22.25;;;12.40;88.20;;;;;;5067770;28;20046;-95
2023/10/26 11:17:22;;;;;;;23.67;21.00;;;12.40;88.00;;;;;;5018705;28;20120;-96
2023/10/26 11:19:49;;;;;;;21.20;18.95;;;12.40;88.00;;;;;;5039598;28;20045;-94
2023/10/26 11:22:16;;;;;;;20.80;18.40;;;12.50;87.90;;;;;;5037384;28;20033;-94
2023/10/26 11:24:43;;;;;;;21.60;18.48;;;12.50;87.50;;;;;;5034084;28;20041;-95
2023/10/26 11:27:13;;;;;;;20.20;17.77;;;12.50;87.40;;;;;;5033742;28;20045;-94
2023/10/26 11:29:40;;;;;;;18.10;16.05;;;12.50;86.90;;;;;;5033660;28;20044;-94
2023/10/26 11:32:20;;;;;;;21.70;18.52;;;12.50;86.50;;;;;;5033209;28;20079;-95
2023/10/26 11:35:08;;;;;;;20.25;17.75;;;12.60;86.00;;;;;;5033571;28;20541;-95
2023/10/26 11:37:40;;;;;;;20.23;17.17;;;12.60;85.70;;;;;;5034150;28;20482;-95
2023/10/26 11:40:07;;;;;;;20.83;17.42;;;12.60;85.70;;;;;;5043849;28;20438;-95
2023/10/26 11:43:05;;;;;;;20.60;18.33;;;12.60;85.70;;;;;;5056567;28;20036;-94
2023/10/26 11:45:47;;;;;;;18.40;16.50;;;12.60;85.30;;;;;;5021660;28;20453;-96
2023/10/26 11:48:26;;;;;;;18.83;16.23;;;12.60;85.10;;;;;;5033498;28;20054;-94
2023/10/26 11:50:52;;;;;;;16.08;13.75;;;12.50;84.80;;;;;;5033452;28;20041;-94
2023/10/26 11:53:17;;;;;;;17.67;15.77;;;12.50;84.70;;;;;;5033614;28;20049;-94
2023/10/26 11:55:43;;;;;;;19.13;15.20;;;12.50;84.70;;;;;;5034477;28;20041;-94
2023/10/26 11:58:08;;;;;;;18.80;15.82;;;12.50;84.70;;;;;;5066281;28;20049;-92
2023/10/26 12:00:34;;;;;;;19.77;16.33;;;12.50;84.40;;;;;;5065885;28;20111;-94
2023/10/26 12:03:00;;;;;;;19.20;15.55;;;12.50;84.70;;;;;;5033802;28;20080;-93
2023/10/26 12:05:26;;;;;;;17.63;15.70;;;12.50;84.30;;;;;;5033839;28;20076;-94
2023/10/26 12:07:52;;;;;;;18.92;15.77;;;12.50;84.20;;;;;;5016437;28;20033;-93
2023/10/26 12:10:20;;;;;;;17.70;15.07;;;12.50;84.00;;;;;;5016582;28;20056;-93
2023/10/26 12:12:48;;;;;;;19.20;15.55;;;12.50;83.90;;;;;;5033019;28;20095;-92
2023/10/26 12:15:15;;;;;;;17.13;13.85;;;12.90;84.50;;;;;;5065735;28;20077;-92
2023/10/26 12:17:40;;;;;;;17.75;14.68;;;12.60;84.00;;;;;;5015624;28;20048;-93
2023/10/26 12:20:08;;;;;;;17.75;14.48;;;12.60;84.00;;;;;;5065397;28;20033;-92
2023/10/26 12:22:33;;;;;;;17.50;14.52;;;12.70;84.40;;;;;;5016049;28;20164;-94
2023/10/26 12:25:04;;;;;;;17.25;15.45;;;12.70;84.60;;;;;;5030634;28;20472;-93
2023/10/26 12:27:30;;;;;;;18.65;14.80;;;12.80;84.50;;;;;;5032370;28;20038;-91